createdAt,value
2023-11-28T00:01:49.372Z,3.01
2023-11-28T00:04:15.997Z,3.09
2023-11-28T00:06:42.468Z,3.01
2023-11-28T00:09:08.962Z,3.00
2023-11-28T00:11:35.422Z,2.98
2023-11-28T00:14:01.971Z,3.00
2023-11-28T00:16:28.626Z,3.05
2023-11-28T00:18:55.195Z,3.05
2023-11-28T00:21:21.756Z,3.12
2023-11-28T00:23:48.158Z,3.13
2023-11-28T00:26:15.501Z,3.21
2023-11-28T00:28:55.153Z,3.19
2023-11-28T00:31:21.803Z,3.30
2023-11-28T00:33:48.527Z,3.25
2023-11-28T00:36:18.265Z,3.30
2023-11-28T00:38:44.948Z,3.40
2023-11-28T00:41:12.825Z,3.37
2023-11-28T00:43:39.984Z,3.34
2023-11-28T00:46:06.781Z,3.31
2023-11-28T00:48:33.787Z,3.26
2023-11-28T00:51:00.236Z,3.22
2023-11-28T00:53:26.684Z,3.18
2023-11-28T00:55:53.569Z,3.17
2023-11-28T00:58:20.037Z,3.15
2023-11-28T01:00:46.559Z,3.15
2023-11-28T01:03:13.115Z,3.16
2023-11-28T01:05:42.636Z,3.14
2023-11-28T01:08:09.597Z,3.21
2023-11-28T01:10:36.168Z,3.17
2023-11-28T01:13:02.729Z,3.12
2023-11-28T01:15:29.243Z,3.13
2023-11-28T01:17:55.747Z,3.09
2023-11-28T01:20:22.509Z,3.04
2023-11-28T01:22:49.014Z,3.08
2023-11-28T01:25:15.638Z,3.02
2023-11-28T01:27:42.076Z,3.03
2023-11-28T01:30:09.061Z,3.06
2023-11-28T01:32:36.513Z,3.00
2023-11-28T01:35:03.473Z,3.00
2023-11-28T01:37:30.612Z,3.02
2023-11-28T01:39:57.154Z,2.97
2023-11-28T01:42:23.667Z,2.98
2023-11-28T01:44:50.153Z,2.96
2023-11-28T01:47:16.696Z,2.98
2023-11-28T01:49:44.172Z,2.97
2023-11-28T01:52:11.462Z,2.90
2023-11-28T01:54:39.043Z,2.87
2023-11-28T01:57:06.325Z,2.89
2023-11-28T01:59:34.538Z,2.98
2023-11-28T02:02:01.509Z,2.89
2023-11-28T02:04:28.289Z,2.90
2023-11-28T02:06:55.077Z,2.86
2023-11-28T02:09:21.675Z,2.80
2023-11-28T02:11:49.107Z,2.81
2023-11-28T02:14:15.664Z,2.78
2023-11-28T02:16:42.360Z,2.65
2023-11-28T02:19:08.880Z,2.60
2023-11-28T02:21:35.509Z,2.67
2023-11-28T02:24:03.984Z,2.73
2023-11-28T02:26:30.664Z,2.80
2023-11-28T02:28:57.918Z,2.80
2023-11-28T02:31:24.748Z,2.75
2023-11-28T02:33:51.964Z,2.83
2023-11-28T02:36:20.401Z,2.72
2023-11-28T02:38:47.665Z,2.72
2023-11-28T02:41:14.114Z,2.70
2023-11-28T02:43:40.777Z,2.64
2023-11-28T02:46:07.489Z,2.66
2023-11-28T02:48:33.972Z,2.53
2023-11-28T02:51:00.845Z,2.48
2023-11-28T02:53:27.358Z,2.54
2023-11-28T02:55:54.006Z,2.53
2023-11-28T02:58:20.537Z,2.61
2023-11-28T03:00:46.997Z,2.58
2023-11-28T03:03:13.595Z,2.55
2023-11-28T03:05:40.148Z,2.57
2023-11-28T03:08:07.351Z,2.48
2023-11-28T03:10:33.961Z,2.50
2023-11-28T03:13:00.744Z,2.50
2023-11-28T03:15:27.211Z,2.54
2023-11-28T03:17:53.694Z,2.47
2023-11-28T03:20:20.256Z,2.50
2023-11-28T03:22:46.710Z,2.40
2023-11-28T03:25:13.633Z,2.37
2023-11-28T03:27:40.297Z,2.40
2023-11-28T03:30:07.455Z,2.42
2023-11-28T03:32:34.271Z,2.40
2023-11-28T03:35:00.953Z,2.49
2023-11-28T03:37:28.531Z,2.43
2023-11-28T03:39:55.026Z,2.34
2023-11-28T03:42:21.874Z,2.34
2023-11-28T03:44:48.284Z,2.30
2023-11-28T03:47:15.084Z,2.25
2023-11-28T03:49:41.668Z,2.25
2023-11-28T03:52:08.472Z,2.25
2023-11-28T03:54:34.924Z,2.30
2023-11-28T03:57:01.563Z,2.28
2023-11-28T03:59:27.995Z,2.28
2023-11-28T04:01:54.530Z,2.22
2023-11-28T04:04:21.668Z,2.20
2023-11-28T04:06:48.315Z,2.25
2023-11-28T04:09:15.091Z,2.28
2023-11-28T04:11:41.687Z,2.27
2023-11-28T04:14:08.757Z,2.34
2023-11-28T04:16:36.136Z,2.41
2023-11-28T04:19:02.796Z,2.43
2023-11-28T04:21:29.247Z,2.47
2023-11-28T04:23:56.122Z,2.46
2023-11-28T04:26:23.401Z,2.49
2023-11-28T04:28:50.763Z,2.44
2023-11-28T04:31:22.095Z,2.49
2023-11-28T04:33:53.316Z,2.53
2023-11-28T04:36:19.811Z,2.57
2023-11-28T04:38:46.457Z,2.59
2023-11-28T04:41:14.632Z,2.64
2023-11-28T04:43:43.052Z,2.66
2023-11-28T04:46:10.678Z,2.65
2023-11-28T04:48:37.350Z,2.65
2023-11-28T04:51:05.741Z,2.61
2023-11-28T04:53:32.263Z,2.64
2023-11-28T04:55:58.730Z,2.68
2023-11-28T04:58:26.367Z,2.59
2023-11-28T05:00:53.049Z,2.65
2023-11-28T05:03:19.799Z,2.77
2023-11-28T05:05:46.497Z,2.76
2023-11-28T05:08:14.360Z,2.74
2023-11-28T05:10:40.951Z,2.71
2023-11-28T05:13:10.763Z,2.74
2023-11-28T05:15:37.825Z,2.76
2023-11-28T05:18:04.836Z,2.74
2023-11-28T05:20:31.447Z,2.75
2023-11-28T05:22:58.041Z,2.79
2023-11-28T05:25:24.981Z,2.77
2023-11-28T05:27:52.497Z,2.82
2023-11-28T05:30:19.087Z,2.90
2023-11-28T05:32:45.656Z,2.84
2023-11-28T05:35:13.784Z,2.87
2023-11-28T05:37:40.372Z,2.80
2023-11-28T05:40:10.756Z,2.84
2023-11-28T05:42:38.018Z,2.90
2023-11-28T05:45:07.056Z,2.97
2023-11-28T05:47:33.744Z,3.03
2023-11-28T05:50:02.290Z,3.09
2023-11-28T05:52:29.550Z,3.13
2023-11-28T05:54:56.326Z,3.11
2023-11-28T05:57:23.082Z,3.12
2023-11-28T05:59:51.523Z,3.04
2023-11-28T06:02:18.187Z,2.96
2023-11-28T06:04:44.719Z,2.93
2023-11-28T06:07:11.453Z,2.87
2023-11-28T06:09:38.277Z,2.89
2023-11-28T06:12:05.046Z,2.90
2023-11-28T06:14:31.721Z,2.94
2023-11-28T06:17:00.869Z,2.93
2023-11-28T06:19:27.754Z,2.88
2023-11-28T06:21:54.629Z,2.84
2023-11-28T06:24:21.182Z,2.82
2023-11-28T06:26:47.607Z,2.80
2023-11-28T06:29:14.122Z,2.86
2023-11-28T06:31:40.659Z,2.83
2023-11-28T06:34:07.245Z,2.81
2023-11-28T06:36:35.906Z,2.81
2023-11-28T06:39:02.410Z,2.79
2023-11-28T06:41:28.878Z,2.84
2023-11-28T06:43:56.038Z,2.87
2023-11-28T06:46:27.086Z,2.83
2023-11-28T06:48:54.647Z,2.83
2023-11-28T06:51:21.983Z,2.84
2023-11-28T06:53:48.383Z,2.75
2023-11-28T06:56:15.064Z,2.64
2023-11-28T06:58:43.452Z,2.61
2023-11-28T07:01:09.965Z,2.59
2023-11-28T07:03:37.716Z,2.63
2023-11-28T07:06:05.186Z,2.66
2023-11-28T07:08:33.975Z,2.67
2023-11-28T07:11:00.681Z,2.66
2023-11-28T07:13:28.212Z,2.73
2023-11-28T07:15:54.828Z,2.70
2023-11-28T07:18:21.684Z,2.71
2023-11-28T07:20:49.313Z,2.73
2023-11-28T07:23:15.950Z,2.76
2023-11-28T07:25:42.562Z,2.81
2023-11-28T07:28:09.034Z,2.73
2023-11-28T07:30:35.472Z,2.76
2023-11-28T07:33:02.044Z,2.80
2023-11-28T07:35:28.500Z,2.85
2023-11-28T07:37:54.999Z,2.91
2023-11-28T07:40:22.329Z,2.91
2023-11-28T07:42:48.755Z,2.93
2023-11-28T07:45:16.129Z,2.83
2023-11-28T07:47:42.598Z,2.83
2023-11-28T07:50:09.772Z,2.89
2023-11-28T07:52:36.888Z,2.90
2023-11-28T07:55:05.026Z,2.88
2023-11-28T07:57:31.732Z,2.90
2023-11-28T07:59:58.176Z,2.91
2023-11-28T08:02:24.704Z,2.94
2023-11-28T08:04:51.350Z,2.92
2023-11-28T08:07:18.421Z,2.98
2023-11-28T08:09:45.288Z,3.01
2023-11-28T08:12:11.796Z,3.00
2023-11-28T08:14:38.257Z,3.06
2023-11-28T08:17:04.995Z,3.13
2023-11-28T08:19:31.530Z,3.22
2023-11-28T08:21:57.960Z,3.23
2023-11-28T08:24:24.412Z,3.28
2023-11-28T08:26:50.866Z,3.34
2023-11-28T08:29:17.324Z,3.38
2023-11-28T08:31:43.977Z,3.37
2023-11-28T08:34:10.610Z,3.42
2023-11-28T08:36:37.028Z,3.40
2023-11-28T08:39:06.178Z,3.39
2023-11-28T08:41:32.725Z,3.39
2023-11-28T08:44:00.388Z,3.42
2023-11-28T08:46:26.931Z,3.51
2023-11-28T08:48:53.545Z,3.55
2023-11-28T08:51:21.344Z,3.57
2023-11-28T08:53:47.860Z,3.53
2023-11-28T08:56:14.648Z,3.60
2023-11-28T08:58:41.334Z,3.68
2023-11-28T09:01:08.191Z,3.71
2023-11-28T09:03:34.901Z,3.76
2023-11-28T09:06:01.437Z,3.72
2023-11-28T09:08:28.818Z,3.76
2023-11-28T09:10:55.335Z,3.80
2023-11-28T09:13:21.781Z,3.85
2023-11-28T09:15:48.358Z,3.90
2023-11-28T09:18:14.969Z,3.89
2023-11-28T09:20:41.566Z,3.94
2023-11-28T09:23:08.050Z,4.05
2023-11-28T09:25:34.520Z,4.13
2023-11-28T09:28:01.389Z,4.16
2023-11-28T09:30:27.850Z,4.14
2023-11-28T09:32:54.401Z,4.02
2023-11-28T09:35:23.433Z,4.01
2023-11-28T09:37:50.972Z,4.05
2023-11-28T09:40:17.524Z,4.13
2023-11-28T09:42:45.918Z,4.17
2023-11-28T09:45:14.582Z,4.22
2023-11-28T09:47:43.190Z,4.28
2023-11-28T09:50:13.920Z,4.57
2023-11-28T09:52:44.041Z,4.59
2023-11-28T09:55:15.063Z,4.49
2023-11-28T09:57:45.964Z,4.49
2023-11-28T10:00:18.453Z,4.55
2023-11-28T10:02:45.511Z,4.52
2023-11-28T10:05:13.270Z,4.50
2023-11-28T10:07:43.594Z,4.47
2023-11-28T10:10:10.359Z,4.40
2023-11-28T10:12:39.732Z,4.42
2023-11-28T10:15:08.129Z,4.48
2023-11-28T10:17:37.194Z,4.55
2023-11-28T10:20:10.791Z,4.55
2023-11-28T10:22:40.641Z,4.51
2023-11-28T10:25:08.803Z,4.48
2023-11-28T10:27:42.471Z,4.42
2023-11-28T10:30:22.845Z,4.39
2023-11-28T10:32:52.248Z,4.34
2023-11-28T10:35:18.944Z,4.24
2023-11-28T10:37:46.145Z,4.25
2023-11-28T10:40:18.276Z,4.28
2023-11-28T10:42:45.369Z,4.29
2023-11-28T10:45:14.157Z,4.33
2023-11-28T10:47:43.448Z,4.32
2023-11-28T10:50:15.020Z,4.34
2023-11-28T10:52:46.053Z,4.38
2023-11-28T10:55:19.308Z,4.42
2023-11-28T10:58:02.109Z,4.49
2023-11-28T11:00:29.899Z,4.48
2023-11-28T11:02:57.440Z,4.57
2023-11-28T11:05:25.131Z,4.62
2023-11-28T11:07:53.001Z,4.67
2023-11-28T11:10:19.490Z,4.70
2023-11-28T11:12:50.541Z,4.72
2023-11-28T11:15:27.703Z,4.78
2023-11-28T11:18:14.454Z,4.75
2023-11-28T11:20:44.798Z,4.70
2023-11-28T11:23:15.760Z,4.58
2023-11-28T11:25:44.645Z,4.44
2023-11-28T11:28:11.319Z,4.42
2023-11-28T11:30:38.908Z,4.38
2023-11-28T11:33:09.045Z,4.40
2023-11-28T11:36:08.632Z,4.43
2023-11-28T11:38:36.845Z,4.40
2023-11-28T11:41:05.764Z,4.50
2023-11-28T11:43:37.500Z,4.62
2023-11-28T11:46:12.935Z,4.66
2023-11-28T11:48:41.153Z,4.58
2023-11-28T11:51:08.481Z,4.55
2023-11-28T11:53:39.662Z,4.56
2023-11-28T11:56:07.168Z,4.56
2023-11-28T11:58:33.800Z,4.60
2023-11-28T12:01:02.544Z,4.65
2023-11-28T12:03:30.136Z,4.68
2023-11-28T12:06:01.627Z,4.65
2023-11-28T12:08:28.712Z,4.69
2023-11-28T12:11:12.447Z,4.73
2023-11-28T12:13:41.011Z,4.71
2023-11-28T12:16:08.198Z,4.77
2023-11-28T12:18:36.047Z,4.83
2023-11-28T12:21:02.781Z,4.92
2023-11-28T12:23:29.247Z,4.91
2023-11-28T12:25:58.723Z,4.95
2023-11-28T12:28:27.626Z,5.05
2023-11-28T12:30:54.299Z,5.13
2023-11-28T12:33:20.854Z,5.16
2023-11-28T12:35:50.422Z,5.13
2023-11-28T12:38:18.765Z,5.12
2023-11-28T12:40:46.984Z,5.04
2023-11-28T12:43:22.477Z,4.97
2023-11-28T12:45:52.899Z,4.94
2023-11-28T12:48:20.094Z,4.97
2023-11-28T12:50:46.844Z,4.99
2023-11-28T12:53:18.784Z,4.98
2023-11-28T12:55:48.733Z,5.02
2023-11-28T12:58:15.220Z,5.06
2023-11-28T13:00:41.796Z,5.15
2023-11-28T13:03:08.766Z,5.21
2023-11-28T13:05:35.378Z,5.30
2023-11-28T13:08:01.944Z,5.31
2023-11-28T13:10:28.774Z,5.28
2023-11-28T13:13:03.809Z,5.31
2023-11-28T13:15:38.484Z,5.28
2023-11-28T13:18:05.103Z,5.25
2023-11-28T13:20:31.904Z,5.19
2023-11-28T13:22:58.436Z,5.20
2023-11-28T13:25:24.956Z,5.17
2023-11-28T13:27:51.426Z,5.12
2023-11-28T13:30:18.386Z,5.04
2023-11-28T13:32:45.047Z,5.04
2023-11-28T13:35:12.948Z,5.03
2023-11-28T13:37:39.550Z,5.03
2023-11-28T13:40:09.950Z,5.03
2023-11-28T13:42:36.426Z,4.94
2023-11-28T13:45:03.081Z,4.95
2023-11-28T13:47:29.963Z,4.91
2023-11-28T13:49:57.253Z,4.95
2023-11-28T13:52:23.781Z,4.99
2023-11-28T13:54:50.275Z,4.99
2023-11-28T13:57:16.721Z,4.95
2023-11-28T13:59:43.376Z,4.94
2023-11-28T14:02:10.043Z,4.91
2023-11-28T14:04:36.676Z,4.89
2023-11-28T14:07:03.092Z,4.88
2023-11-28T14:09:29.823Z,4.90
2023-11-28T14:11:56.331Z,4.89
2023-11-28T14:14:22.943Z,4.87
2023-11-28T14:16:50.356Z,4.88
2023-11-28T14:19:16.839Z,4.88
2023-11-28T14:21:43.444Z,4.87
2023-11-28T14:24:09.953Z,4.86
2023-11-28T14:26:36.437Z,4.84
2023-11-28T14:29:03.046Z,4.84
2023-11-28T14:31:29.537Z,4.85
2023-11-28T14:33:56.457Z,4.85
2023-11-28T14:36:22.997Z,4.83
2023-11-28T14:38:51.122Z,4.82
2023-11-28T14:41:17.682Z,4.77
2023-11-28T14:43:44.522Z,4.78
2023-11-28T14:46:11.015Z,4.78
2023-11-28T14:48:37.581Z,4.72
2023-11-28T14:51:04.965Z,4.73
2023-11-28T14:53:32.837Z,4.74
2023-11-28T14:55:59.354Z,4.72
2023-11-28T14:58:25.837Z,4.68
2023-11-28T15:00:52.622Z,4.69
2023-11-28T15:03:19.341Z,4.67
2023-11-28T15:05:45.901Z,4.64
2023-11-28T15:08:12.540Z,4.65
2023-11-28T15:10:39.120Z,4.60
2023-11-28T15:13:07.871Z,4.60
2023-11-28T15:15:34.302Z,4.62
2023-11-28T15:18:00.739Z,4.62
2023-11-28T15:20:27.383Z,4.60
2023-11-28T15:22:54.028Z,4.58
2023-11-28T15:25:20.588Z,4.57
2023-11-28T15:27:47.092Z,4.53
2023-11-28T15:30:13.963Z,4.55
2023-11-28T15:32:40.635Z,4.56
2023-11-28T15:35:11.716Z,4.53
2023-11-28T15:37:39.654Z,4.54
2023-11-28T15:40:10.578Z,4.53
2023-11-28T15:42:37.627Z,4.45
2023-11-28T15:45:04.901Z,4.43
2023-11-28T15:47:31.562Z,4.40
2023-11-28T15:49:59.218Z,4.38
2023-11-28T15:52:25.729Z,4.39
2023-11-28T15:54:54.560Z,4.40
2023-11-28T15:57:21.148Z,4.37
2023-11-28T15:59:48.768Z,4.38
2023-11-28T16:02:15.442Z,4.40
2023-11-28T16:04:42.198Z,4.41
2023-11-28T16:07:09.500Z,4.39
2023-11-28T16:09:36.084Z,4.40
2023-11-28T16:12:02.625Z,4.40
2023-11-28T16:14:29.148Z,4.33
2023-11-28T16:16:55.906Z,4.34
2023-11-28T16:19:22.448Z,4.36
2023-11-28T16:21:49.251Z,4.28
2023-11-28T16:24:16.255Z,4.25
2023-11-28T16:26:42.947Z,4.25
2023-11-28T16:29:09.578Z,4.16
2023-11-28T16:31:36.895Z,4.03
2023-11-28T16:34:03.371Z,3.97
2023-11-28T16:36:30.123Z,4.06
2023-11-28T16:38:56.845Z,4.12
2023-11-28T16:41:23.694Z,4.12
2023-11-28T16:43:50.799Z,4.09
2023-11-28T16:46:17.326Z,4.09
2023-11-28T16:48:43.823Z,4.03
2023-11-28T16:51:15.083Z,4.05
2023-11-28T16:53:41.861Z,4.07
2023-11-28T16:56:09.136Z,4.06
2023-11-28T16:58:35.866Z,4.02
2023-11-28T17:01:03.620Z,3.98
2023-11-28T17:03:30.395Z,3.97
2023-11-28T17:05:57.006Z,3.95
2023-11-28T17:08:23.616Z,3.92
2023-11-28T17:10:50.925Z,3.90
2023-11-28T17:13:17.496Z,3.90
2023-11-28T17:15:43.989Z,3.86
2023-11-28T17:18:10.792Z,3.85
2023-11-28T17:20:37.481Z,3.85
2023-11-28T17:23:04.049Z,3.87
2023-11-28T17:25:30.663Z,3.75
2023-11-28T17:27:57.162Z,3.68
2023-11-28T17:30:23.605Z,3.71
2023-11-28T17:32:50.109Z,3.73
2023-11-28T17:35:18.585Z,3.63
2023-11-28T17:37:45.216Z,3.68
2023-11-28T17:40:12.857Z,3.70
2023-11-28T17:42:39.328Z,3.65
2023-11-28T17:45:06.301Z,3.66
2023-11-28T17:47:35.219Z,3.71
2023-11-28T17:50:01.817Z,3.69
2023-11-28T17:52:28.911Z,3.76
2023-11-28T17:54:56.443Z,3.72
2023-11-28T17:57:22.909Z,3.74
2023-11-28T17:59:49.306Z,3.70
2023-11-28T18:02:16.547Z,3.56
2023-11-28T18:04:43.908Z,3.55
2023-11-28T18:07:11.414Z,3.57
2023-11-28T18:09:38.090Z,3.59
2023-11-28T18:12:05.029Z,3.63
2023-11-28T18:14:35.912Z,3.63
2023-11-28T18:17:03.769Z,3.64
2023-11-28T18:19:30.790Z,3.63
2023-11-28T18:21:57.500Z,3.64
2023-11-28T18:24:24.005Z,3.63
2023-11-28T18:26:50.417Z,3.65
2023-11-28T18:29:17.012Z,3.69
2023-11-28T18:31:46.415Z,3.73
2023-11-28T18:34:13.004Z,3.70
2023-11-28T18:36:40.367Z,3.74
2023-11-28T18:39:09.782Z,3.76
2023-11-28T18:41:41.186Z,3.75
2023-11-28T18:44:12.233Z,3.77
2023-11-28T18:46:41.121Z,3.82
2023-11-28T18:49:07.578Z,3.97
2023-11-28T18:51:34.002Z,4.48
2023-11-28T18:54:00.512Z,4.31
2023-11-28T18:56:31.098Z,4.19
2023-11-28T18:58:57.902Z,4.05
2023-11-28T19:01:27.596Z,3.90
2023-11-28T19:03:55.082Z,3.72
2023-11-28T19:06:26.760Z,3.71
2023-11-28T19:08:54.267Z,3.66
2023-11-28T19:11:24.674Z,3.58
2023-11-28T19:13:52.662Z,3.54
2023-11-28T19:16:25.729Z,3.47
2023-11-28T19:18:55.110Z,3.44
2023-11-28T19:21:22.372Z,3.39
2023-11-28T19:23:48.819Z,3.37
2023-11-28T19:26:16.466Z,3.39
2023-11-28T19:28:44.870Z,3.45
2023-11-28T19:31:12.180Z,3.47
2023-11-28T19:33:38.831Z,3.41
2023-11-28T19:36:06.197Z,3.40
2023-11-28T19:38:33.848Z,3.32
2023-11-28T19:41:00.367Z,3.37
2023-11-28T19:43:27.454Z,3.37
2023-11-28T19:45:54.037Z,3.40
2023-11-28T19:48:23.379Z,3.37
2023-11-28T19:50:50.611Z,3.35
2023-11-28T19:53:18.336Z,3.35
2023-11-28T19:55:45.680Z,3.36
2023-11-28T19:58:12.574Z,3.39
2023-11-28T20:00:39.416Z,3.40
2023-11-28T20:03:07.523Z,3.42
2023-11-28T20:05:35.254Z,3.39
2023-11-28T20:08:03.101Z,3.41
2023-11-28T20:10:30.176Z,3.46
2023-11-28T20:12:59.629Z,3.52
2023-11-28T20:15:28.356Z,3.51
2023-11-28T20:17:55.398Z,3.51
2023-11-28T20:20:22.591Z,3.51
2023-11-28T20:22:51.837Z,3.58
2023-11-28T20:25:19.523Z,3.59
2023-11-28T20:27:46.274Z,3.55
2023-11-28T20:30:13.820Z,3.53
2023-11-28T20:32:40.830Z,3.46
2023-11-28T20:35:08.264Z,3.40
2023-11-28T20:37:35.905Z,3.36
2023-11-28T20:40:02.754Z,3.35
2023-11-28T20:42:29.218Z,3.37
2023-11-28T20:44:56.146Z,3.40
2023-11-28T20:47:23.148Z,3.43
2023-11-28T20:49:49.626Z,3.45
2023-11-28T20:52:16.087Z,3.42
2023-11-28T20:54:42.539Z,3.44
2023-11-28T20:57:08.972Z,3.51
2023-11-28T20:59:37.105Z,3.49
2023-11-28T21:02:06.132Z,3.51
2023-11-28T21:04:33.667Z,3.58
2023-11-28T21:07:00.265Z,3.62
2023-11-28T21:09:26.772Z,3.68
2023-11-28T21:11:53.515Z,3.70
2023-11-28T21:14:21.196Z,3.64
2023-11-28T21:16:48.332Z,3.57
2023-11-28T21:19:14.812Z,3.49
2023-11-28T21:21:41.210Z,3.53
2023-11-28T21:24:07.907Z,3.56
2023-11-28T21:26:34.419Z,3.55
2023-11-28T21:29:00.908Z,3.52
2023-11-28T21:31:28.044Z,3.52
2023-11-28T21:33:54.555Z,3.42
2023-11-28T21:36:22.244Z,3.32
2023-11-28T21:38:51.254Z,3.26
2023-11-28T21:41:20.120Z,3.25
2023-11-28T21:43:46.782Z,3.28
2023-11-28T21:46:13.600Z,3.33
2023-11-28T21:48:46.387Z,3.35
2023-11-28T21:51:13.081Z,3.35
2023-11-28T21:53:39.752Z,3.38
2023-11-28T21:56:06.599Z,3.29
2023-11-28T21:58:33.619Z,3.32
2023-11-28T22:01:00.067Z,3.30
2023-11-28T22:03:26.640Z,3.32
2023-11-28T22:05:53.287Z,3.37
2023-11-28T22:08:19.850Z,3.37
2023-11-28T22:10:46.320Z,3.34
2023-11-28T22:13:12.823Z,3.33
2023-11-28T22:15:39.288Z,3.37
2023-11-28T22:18:06.109Z,3.33
2023-11-28T22:20:33.516Z,3.51
2023-11-28T22:23:00.088Z,3.58
2023-11-28T22:25:26.632Z,3.52
2023-11-28T22:27:53.275Z,3.46
2023-11-28T22:30:19.852Z,3.38
2023-11-28T22:32:46.391Z,3.30
2023-11-28T22:35:12.923Z,3.31
2023-11-28T22:37:40.734Z,3.22
2023-11-28T22:40:09.289Z,3.24
2023-11-28T22:42:35.710Z,3.30
2023-11-28T22:45:02.301Z,3.32
2023-11-28T22:47:28.891Z,3.32
2023-11-28T22:49:55.374Z,3.35
2023-11-28T22:52:21.947Z,3.37
2023-11-28T22:54:48.413Z,3.38
2023-11-28T22:57:15.067Z,3.35
2023-11-28T22:59:42.775Z,3.31
2023-11-28T23:02:11.774Z,3.21
2023-11-28T23:04:39.031Z,3.16
2023-11-28T23:07:05.647Z,3.15
2023-11-28T23:09:32.503Z,3.09
2023-11-28T23:12:01.619Z,3.11
2023-11-28T23:14:29.683Z,3.17
2023-11-28T23:16:56.278Z,3.27
2023-11-28T23:19:22.721Z,3.34
2023-11-28T23:21:49.149Z,3.42
2023-11-28T23:24:15.711Z,3.52
2023-11-28T23:26:45.460Z,3.61
2023-11-28T23:29:12.101Z,3.63
2023-11-28T23:31:38.592Z,3.64
2023-11-28T23:34:06.045Z,3.66
2023-11-28T23:36:33.048Z,3.62
2023-11-28T23:38:59.739Z,3.58
2023-11-28T23:41:26.424Z,3.52
2023-11-28T23:43:56.342Z,3.44
2023-11-28T23:46:22.834Z,3.38
2023-11-28T23:48:53.415Z,3.42
2023-11-28T23:51:20.426Z,3.43
2023-11-28T23:53:47.684Z,3.38
2023-11-28T23:56:14.443Z,3.40
2023-11-28T23:58:41.062Z,3.49
